createdAt,value
2023-03-23T16:00:23.886Z,15.00
2023-03-23T16:03:18.010Z,15.00
2023-03-23T16:06:05.027Z,15.00
2023-03-23T16:08:54.253Z,15.00
2023-03-23T16:11:42.298Z,15.00
2023-03-23T16:14:29.131Z,15.00
2023-03-23T16:17:20.519Z,15.00
2023-03-23T16:20:13.482Z,15.00
2023-03-23T16:23:01.118Z,14.90
2023-03-23T16:25:48.000Z,14.90
2023-03-23T16:28:34.822Z,14.90
2023-03-23T16:31:21.727Z,14.90
2023-03-23T16:34:09.322Z,14.90
2023-03-23T16:36:56.473Z,14.90
2023-03-23T16:39:43.379Z,14.90
2023-03-23T16:42:30.403Z,14.80
2023-03-23T16:45:18.016Z,14.70
2023-03-23T16:48:05.564Z,14.70
2023-03-23T16:50:54.573Z,14.60
2023-03-23T16:53:41.458Z,14.60
2023-03-23T16:56:28.371Z,14.60
2023-03-23T16:59:15.493Z,14.60
2023-03-23T17:02:03.976Z,14.60
2023-03-23T17:04:51.011Z,14.50
2023-03-23T17:07:39.618Z,14.40
2023-03-23T17:10:28.622Z,14.40
2023-03-23T17:13:15.470Z,14.40
2023-03-23T17:16:02.368Z,14.30
2023-03-23T17:18:49.213Z,14.30
2023-03-23T17:21:36.288Z,14.30
2023-03-23T17:24:23.123Z,14.20
2023-03-23T17:27:10.414Z,14.10
2023-03-23T17:29:57.460Z,14.10
2023-03-23T17:32:44.639Z,14.00
2023-03-23T17:35:31.422Z,13.90
2023-03-23T17:38:18.503Z,13.80
2023-03-23T17:41:07.853Z,13.80
2023-03-23T17:43:54.776Z,13.80
2023-03-23T17:46:41.639Z,13.70
2023-03-23T17:49:30.410Z,13.70
2023-03-23T17:52:17.313Z,13.60
2023-03-23T17:55:04.887Z,13.60
2023-03-23T17:57:51.875Z,13.60
2023-03-23T18:00:38.748Z,13.60
2023-03-23T18:03:26.285Z,13.60
2023-03-23T18:06:13.264Z,13.60
2023-03-23T18:09:00.133Z,13.60
2023-03-23T18:11:46.953Z,13.50
2023-03-23T18:14:33.857Z,13.50
2023-03-23T18:17:20.794Z,13.40
2023-03-23T18:20:08.801Z,13.40
2023-03-23T18:22:56.136Z,13.40
2023-03-23T18:25:43.041Z,13.40
2023-03-23T18:28:30.073Z,13.40
2023-03-23T18:31:18.774Z,13.40
2023-03-23T18:34:06.190Z,13.30
2023-03-23T18:36:53.006Z,13.20
2023-03-23T18:39:39.870Z,13.10
2023-03-23T18:42:26.989Z,13.10
2023-03-23T18:45:13.873Z,13.10
2023-03-23T18:48:00.773Z,13.00
2023-03-23T18:50:48.668Z,12.90
2023-03-23T18:53:35.648Z,12.90
2023-03-23T18:56:22.501Z,12.90
2023-03-23T18:59:09.716Z,12.80
2023-03-23T19:01:57.854Z,12.80
2023-03-23T19:04:49.192Z,12.80
2023-03-23T19:07:36.378Z,12.80
2023-03-23T19:10:23.733Z,12.80
2023-03-23T19:13:11.357Z,12.80
2023-03-23T19:15:58.291Z,12.80
2023-03-23T19:18:45.174Z,12.80
2023-03-23T19:21:32.603Z,12.90
2023-03-23T19:24:20.043Z,12.90
2023-03-23T19:27:08.232Z,12.90
2023-03-23T19:29:55.685Z,12.90
2023-03-23T19:32:42.509Z,12.80
2023-03-23T19:35:30.817Z,12.60
2023-03-23T19:38:18.700Z,12.60
2023-03-23T19:41:06.220Z,12.60
2023-03-23T19:43:53.565Z,12.60
2023-03-23T19:46:44.566Z,12.70
2023-03-23T19:49:32.852Z,12.70
2023-03-23T19:52:20.216Z,12.70
2023-03-23T19:55:07.879Z,12.70
2023-03-23T19:57:55.295Z,12.70
2023-03-23T20:00:44.260Z,12.80
2023-03-23T20:03:31.995Z,12.50
2023-03-23T20:06:19.711Z,12.40
2023-03-23T20:09:07.513Z,12.30
2023-03-23T20:11:54.361Z,12.50
2023-03-23T20:14:46.520Z,12.50
2023-03-23T20:17:33.800Z,12.60
2023-03-23T20:20:21.198Z,12.70
2023-03-23T20:23:08.897Z,12.70
2023-03-23T20:25:59.806Z,12.70
2023-03-23T20:28:47.783Z,12.80
2023-03-23T20:31:38.255Z,12.70
2023-03-23T20:34:31.810Z,12.70
2023-03-23T20:37:21.009Z,12.70
2023-03-23T20:40:11.711Z,12.70
2023-03-23T20:42:59.018Z,12.70
2023-03-23T20:45:48.522Z,12.70
2023-03-23T20:48:40.881Z,12.70
2023-03-23T20:51:28.647Z,12.70
2023-03-23T20:54:16.498Z,12.70
2023-03-23T20:57:03.969Z,12.80
2023-03-23T20:59:52.561Z,12.50
2023-03-23T21:02:40.341Z,12.30
2023-03-23T21:05:33.514Z,12.10
2023-03-23T21:08:20.598Z,11.90
2023-03-23T21:11:10.851Z,11.90
2023-03-23T21:13:57.968Z,11.80
2023-03-23T21:16:45.303Z,11.70
2023-03-23T21:19:33.054Z,11.70
2023-03-23T21:22:20.672Z,11.80
2023-03-23T21:25:10.512Z,11.80
2023-03-23T21:28:00.702Z,11.80
2023-03-23T21:30:49.492Z,11.70
2023-03-23T21:33:37.264Z,11.70
2023-03-23T21:36:24.769Z,11.60
2023-03-23T21:39:11.890Z,11.50
2023-03-23T21:41:59.576Z,11.50
2023-03-23T21:44:46.925Z,11.60
2023-03-23T21:47:33.802Z,11.50
2023-03-23T21:50:22.052Z,11.50
2023-03-23T21:53:12.850Z,11.50
2023-03-23T21:56:00.295Z,11.60
2023-03-23T21:58:47.085Z,11.70
2023-03-23T22:01:36.760Z,11.70
2023-03-23T22:04:24.850Z,11.80
2023-03-23T22:07:12.720Z,11.80
2023-03-23T22:09:59.625Z,11.80
2023-03-23T22:12:49.429Z,11.80
2023-03-23T22:15:36.663Z,11.80
2023-03-23T22:18:23.569Z,11.60
2023-03-23T22:21:11.382Z,11.60
2023-03-23T22:23:59.054Z,11.40
2023-03-23T22:26:46.081Z,11.30
2023-03-23T22:29:32.977Z,11.30
2023-03-23T22:32:19.901Z,11.40
2023-03-23T22:35:07.289Z,11.20
2023-03-23T22:37:54.866Z,11.20
2023-03-23T22:40:42.620Z,11.20
2023-03-23T22:43:29.384Z,11.20
2023-03-23T22:46:17.402Z,11.20
2023-03-23T22:49:04.434Z,11.20
2023-03-23T22:51:51.250Z,11.30
2023-03-23T22:54:38.061Z,11.30
2023-03-23T22:57:24.979Z,11.40
2023-03-23T23:00:15.078Z,11.60
2023-03-23T23:03:02.045Z,11.70
2023-03-23T23:05:51.271Z,11.70
2023-03-23T23:08:38.332Z,11.60
2023-03-23T23:11:26.181Z,11.50
2023-03-23T23:14:12.995Z,11.50
2023-03-23T23:16:59.996Z,11.40
2023-03-23T23:19:46.926Z,11.30
2023-03-23T23:22:34.201Z,11.20
2023-03-23T23:25:21.160Z,11.20
2023-03-23T23:28:08.124Z,11.20
2023-03-23T23:30:55.011Z,11.30
2023-03-23T23:33:41.863Z,11.30
2023-03-23T23:36:30.538Z,11.40
2023-03-23T23:39:18.028Z,11.40
2023-03-23T23:42:05.972Z,11.30
2023-03-23T23:44:53.063Z,11.30
2023-03-23T23:47:40.580Z,11.30
2023-03-23T23:50:27.785Z,11.30
2023-03-23T23:53:14.667Z,11.40
2023-03-23T23:56:03.880Z,11.40
2023-03-23T23:58:51.455Z,11.40
